sensor_id;sensor_type;location;lat;lon;timestamp;pressure;altitude;pressure_sealevel;temperature;humidity
25560;BME280;13450;49.374;8.584;2022-10-16T16:24:03;100658.72;;;19.27;100.00
25560;BME280;13450;49.374;8.584;2022-10-16T16:26:33;100657.09;;;19.14;100.00
25560;BME280;13450;49.374;8.584;2022-10-16T16:29:02;100652.44;;;19.03;100.00
25560;BME280;13450;49.374;8.584;2022-10-16T16:31:29;100660.13;;;18.94;100.00
25560;BME280;13450;49.374;8.584;2022-10-16T16:33:55;100655.28;;;18.84;100.00
25560;BME280;13450;49.374;8.584;2022-10-16T16:36:24;100662.13;;;18.75;100.00
25560;BME280;13450;49.374;8.584;2022-10-16T16:38:52;100656.47;;;18.64;100.00
25560;BME280;13450;49.374;8.584;2022-10-16T16:41:20;100652.44;;;18.55;100.00
25560;BME280;13450;49.374;8.584;2022-10-16T16:43:46;100653.25;;;18.43;100.00
25560;BME280;13450;49.374;8.584;2022-10-16T16:46:22;100651.94;;;18.34;100.00
25560;BME280;13450;49.374;8.584;2022-10-16T16:48:47;100651.69;;;18.24;100.00
25560;BME280;13450;49.374;8.584;2022-10-16T16:51:16;100660.97;;;18.16;100.00
25560;BME280;13450;49.374;8.584;2022-10-16T16:53:46;100656.88;;;18.07;100.00
25560;BME280;13450;49.374;8.584;2022-10-16T16:56:12;100655.31;;;17.99;100.00
25560;BME280;13450;49.374;8.584;2022-10-16T16:58:37;100664.00;;;17.89;100.00
25560;BME280;13450;49.374;8.584;2022-10-16T17:01:05;100672.22;;;17.82;100.00
25560;BME280;13450;49.374;8.584;2022-10-16T17:03:33;100673.56;;;17.73;100.00
25560;BME280;13450;49.374;8.584;2022-10-16T17:08:27;100684.53;;;17.59;100.00
25560;BME280;13450;49.374;8.584;2022-10-16T17:10:54;100682.97;;;17.51;100.00
25560;BME280;13450;49.374;8.584;2022-10-16T17:13:21;100683.25;;;17.43;100.00
25560;BME280;13450;49.374;8.584;2022-10-16T17:15:49;100681.25;;;17.38;100.00
25560;BME280;13450;49.374;8.584;2022-10-16T17:18:15;100680.69;;;17.30;100.00
25560;BME280;13450;49.374;8.584;2022-10-16T17:20:43;100685.75;;;17.26;100.00
25560;BME280;13450;49.374;8.584;2022-10-16T17:23:10;100687.44;;;17.20;100.00
25560;BME280;13450;49.374;8.584;2022-10-16T17:25:37;100682.34;;;17.12;100.00
25560;BME280;13450;49.374;8.584;2022-10-16T17:30:38;100680.75;;;17.04;100.00
25560;BME280;13450;49.374;8.584;2022-10-16T17:33:05;100691.38;;;16.99;100.00
25560;BME280;13450;49.374;8.584;2022-10-16T17:35:41;100693.47;;;16.97;100.00
25560;BME280;13450;49.374;8.584;2022-10-16T17:38:08;100691.44;;;16.92;100.00
25560;BME280;13450;49.374;8.584;2022-10-16T17:40:34;100698.53;;;16.86;100.00
25560;BME280;13450;49.374;8.584;2022-10-16T17:43:00;100703.78;;;16.81;100.00
25560;BME280;13450;49.374;8.584;2022-10-16T17:45:25;100702.19;;;16.73;100.00
25560;BME280;13450;49.374;8.584;2022-10-16T17:47:51;100699.72;;;16.72;100.00
25560;BME280;13450;49.374;8.584;2022-10-16T17:50:16;100699.53;;;16.67;100.00
25560;BME280;13450;49.374;8.584;2022-10-16T17:52:42;100704.16;;;16.59;100.00
25560;BME280;13450;49.374;8.584;2022-10-16T17:55:07;100700.84;;;16.57;100.00
25560;BME280;13450;49.374;8.584;2022-10-16T17:57:33;100698.81;;;16.53;100.00
25560;BME280;13450;49.374;8.584;2022-10-16T17:59:58;100699.00;;;16.51;100.00
25560;BME280;13450;49.374;8.584;2022-10-16T18:02:24;100697.19;;;16.45;100.00
25560;BME280;13450;49.374;8.584;2022-10-16T18:04:50;100697.19;;;16.45;100.00
25560;BME280;13450;49.374;8.584;2022-10-16T18:07:16;100701.59;;;16.39;100.00
25560;BME280;13450;49.374;8.584;2022-10-16T18:09:41;100699.78;;;16.33;100.00
25560;BME280;13450;49.374;8.584;2022-10-16T18:12:09;100711.00;;;16.30;100.00
25560;BME280;13450;49.374;8.584;2022-10-16T18:14:34;100714.38;;;16.25;100.00
25560;BME280;13450;49.374;8.584;2022-10-16T18:17:02;100713.13;;;16.21;100.00
25560;BME280;13450;49.374;8.584;2022-10-16T18:19:27;100720.59;;;16.19;100.00
25560;BME280;13450;49.374;8.584;2022-10-16T18:21:53;100717.31;;;16.17;100.00
25560;BME280;13450;49.374;8.584;2022-10-16T18:24:20;100716.09;;;16.13;100.00
25560;BME280;13450;49.374;8.584;2022-10-16T18:26:48;100718.16;;;16.11;100.00
25560;BME280;13450;49.374;8.584;2022-10-16T18:29:13;100716.97;;;16.06;100.00
25560;BME280;13450;49.374;8.584;2022-10-16T18:31:39;100722.34;;;16.06;100.00
25560;BME280;13450;49.374;8.584;2022-10-16T18:34:05;100723.59;;;16.04;100.00
25560;BME280;13450;49.374;8.584;2022-10-16T18:36:32;100717.78;;;16.00;100.00
25560;BME280;13450;49.374;8.584;2022-10-16T18:38:59;100722.38;;;16.00;100.00
25560;BME280;13450;49.374;8.584;2022-10-16T18:41:25;100731.09;;;15.95;100.00
25560;BME280;13450;49.374;8.584;2022-10-16T18:43:51;100726.09;;;15.92;100.00
25560;BME280;13450;49.374;8.584;2022-10-16T18:46:19;100729.03;;;15.90;100.00
25560;BME280;13450;49.374;8.584;2022-10-16T18:48:45;100730.25;;;15.88;100.00
25560;BME280;13450;49.374;8.584;2022-10-16T18:51:20;100723.03;;;15.81;100.00
25560;BME280;13450;49.374;8.584;2022-10-16T18:53:48;100723.25;;;15.80;100.00
25560;BME280;13450;49.374;8.584;2022-10-16T18:56:15;100717.25;;;15.78;100.00
25560;BME280;13450;49.374;8.584;2022-10-16T18:58:42;100722.84;;;15.76;100.00
25560;BME280;13450;49.374;8.584;2022-10-16T19:01:13;100715.81;;;15.75;100.00
25560;BME280;13450;49.374;8.584;2022-10-16T19:03:39;100728.66;;;15.73;100.00
25560;BME280;13450;49.374;8.584;2022-10-16T19:06:11;100725.38;;;15.71;100.00
25560;BME280;13450;49.374;8.584;2022-10-16T19:08:37;100724.91;;;15.74;100.00
25560;BME280;13450;49.374;8.584;2022-10-16T19:11:05;100727.19;;;15.77;100.00
25560;BME280;13450;49.374;8.584;2022-10-16T19:13:30;100729.28;;;15.82;100.00
25560;BME280;13450;49.374;8.584;2022-10-16T19:15:56;100731.31;;;15.87;100.00
25560;BME280;13450;49.374;8.584;2022-10-16T19:18:22;100730.69;;;15.91;100.00
25560;BME280;13450;49.374;8.584;2022-10-16T19:20:48;100725.72;;;15.95;100.00
25560;BME280;13450;49.374;8.584;2022-10-16T19:23:15;100732.34;;;15.99;100.00
25560;BME280;13450;49.374;8.584;2022-10-16T19:25:40;100732.34;;;15.99;100.00
25560;BME280;13450;49.374;8.584;2022-10-16T19:28:06;100743.13;;;15.99;100.00
25560;BME280;13450;49.374;8.584;2022-10-16T19:30:39;100741.28;;;16.00;100.00
25560;BME280;13450;49.374;8.584;2022-10-16T19:33:05;100743.72;;;16.01;100.00
25560;BME280;13450;49.374;8.584;2022-10-16T19:35:32;100746.44;;;16.01;100.00
25560;BME280;13450;49.374;8.584;2022-10-16T19:37:58;100742.53;;;15.97;100.00
25560;BME280;13450;49.374;8.584;2022-10-16T19:40:23;100735.47;;;15.96;100.00
25560;BME280;13450;49.374;8.584;2022-10-16T19:42:49;100746.88;;;15.98;100.00
25560;BME280;13450;49.374;8.584;2022-10-16T19:45:14;100743.56;;;15.96;100.00
25560;BME280;13450;49.374;8.584;2022-10-16T19:47:42;100749.78;;;15.90;100.00
25560;BME280;13450;49.374;8.584;2022-10-16T19:50:09;100754.34;;;15.89;100.00
25560;BME280;13450;49.374;8.584;2022-10-16T19:52:37;100761.44;;;15.84;100.00
25560;BME280;13450;49.374;8.584;2022-10-16T19:55:06;100759.56;;;15.77;100.00
25560;BME280;13450;49.374;8.584;2022-10-16T19:57:35;100764.38;;;15.75;100.00
25560;BME280;13450;49.374;8.584;2022-10-16T20:00:04;100765.81;;;15.71;100.00
25560;BME280;13450;49.374;8.584;2022-10-16T20:02:31;100769.78;;;15.68;100.00
25560;BME280;13450;49.374;8.584;2022-10-16T20:04:57;100774.75;;;15.65;100.00
25560;BME280;13450;49.374;8.584;2022-10-16T20:07:22;100774.34;;;15.61;100.00
25560;BME280;13450;49.374;8.584;2022-10-16T20:09:48;100779.75;;;15.54;100.00
25560;BME280;13450;49.374;8.584;2022-10-16T20:12:16;100772.31;;;15.50;100.00
25560;BME280;13450;49.374;8.584;2022-10-16T20:14:41;100773.53;;;15.47;100.00
25560;BME280;13450;49.374;8.584;2022-10-16T20:17:07;100777.72;;;15.43;100.00
25560;BME280;13450;49.374;8.584;2022-10-16T20:19:32;100787.25;;;15.39;100.00
25560;BME280;13450;49.374;8.584;2022-10-16T20:21:58;100797.59;;;15.35;100.00
25560;BME280;13450;49.374;8.584;2022-10-16T20:24:23;100789.72;;;15.34;100.00
25560;BME280;13450;49.374;8.584;2022-10-16T20:26:49;100795.09;;;15.34;100.00
25560;BME280;13450;49.374;8.584;2022-10-16T20:29:15;100789.53;;;15.28;100.00
25560;BME280;13450;49.374;8.584;2022-10-16T20:31:40;100794.91;;;15.28;100.00
25560;BME280;13450;49.374;8.584;2022-10-16T20:34:10;100801.75;;;15.24;100.00
25560;BME280;13450;49.374;8.584;2022-10-16T20:36:38;100799.06;;;15.24;100.00
25560;BME280;13450;49.374;8.584;2022-10-16T20:39:05;100809.22;;;15.22;100.00
25560;BME280;13450;49.374;8.584;2022-10-16T20:41:33;100806.31;;;15.17;100.00
25560;BME280;13450;49.374;8.584;2022-10-16T20:43:58;100810.69;;;15.11;100.00
25560;BME280;13450;49.374;8.584;2022-10-16T20:46:25;100814.63;;;15.09;100.00
25560;BME280;13450;49.374;8.584;2022-10-16T20:48:52;100823.75;;;15.08;100.00
25560;BME280;13450;49.374;8.584;2022-10-16T20:51:21;100826.22;;;15.02;100.00
25560;BME280;13450;49.374;8.584;2022-10-16T20:53:52;100831.19;;;14.99;100.00
25560;BME280;13450;49.374;8.584;2022-10-16T21:09:06;100840.31;;;14.98;100.00
25560;BME280;13450;49.374;8.584;2022-10-16T21:11:34;100836.16;;;14.95;100.00
25560;BME280;13450;49.374;8.584;2022-10-16T21:14:02;100843.59;;;14.93;100.00
25560;BME280;13450;49.374;8.584;2022-10-16T21:16:28;100847.75;;;14.89;100.00
25560;BME280;13450;49.374;8.584;2022-10-16T21:18:56;100856.84;;;14.88;100.00
25560;BME280;13450;49.374;8.584;2022-10-16T21:26:32;100848.34;;;14.77;100.00
25560;BME280;13450;49.374;8.584;2022-10-16T21:47:14;100851.91;;;14.85;100.00
25560;BME280;13450;49.374;8.584;2022-10-16T21:49:39;100861.84;;;14.91;100.00
25560;BME280;13450;49.374;8.584;2022-10-16T21:59:48;100862.94;;;15.17;100.00
25560;BME280;13450;49.374;8.584;2022-10-16T22:08:53;100859.41;;;15.23;100.00
25560;BME280;13450;49.374;8.584;2022-10-16T22:11:25;100864.41;;;15.26;100.00
25560;BME280;13450;49.374;8.584;2022-10-16T22:16:26;100871.03;;;15.30;100.00
25560;BME280;13450;49.374;8.584;2022-10-16T22:18:53;100870.19;;;15.37;100.00
25560;BME280;13450;49.374;8.584;2022-10-16T22:21:22;100867.69;;;15.42;100.00
25560;BME280;13450;49.374;8.584;2022-10-16T22:23:48;100876.44;;;15.51;100.00
25560;BME280;13450;49.374;8.584;2022-10-16T22:26:14;100878.09;;;15.59;100.00
25560;BME280;13450;49.374;8.584;2022-10-16T22:41:36;100879.72;;;16.00;100.00
25560;BME280;13450;49.374;8.584;2022-10-16T22:44:02;100877.66;;;16.02;100.00
25560;BME280;13450;49.374;8.584;2022-10-16T22:46:30;100874.97;;;16.02;100.00
25560;BME280;13450;49.374;8.584;2022-10-16T22:48:56;100878.47;;;16.03;100.00
25560;BME280;13450;49.374;8.584;2022-10-16T22:51:23;100874.13;;;16.02;100.00
25560;BME280;13450;49.374;8.584;2022-10-16T22:53:49;100876.81;;;16.02;100.00
25560;BME280;13450;49.374;8.584;2022-10-16T22:56:20;100884.31;;;16.00;100.00
25560;BME280;13450;49.374;8.584;2022-10-16T23:01:26;100874.78;;;15.97;100.00
25560;BME280;13450;49.374;8.584;2022-10-16T23:03:54;100879.31;;;15.97;100.00
25560;BME280;13450;49.374;8.584;2022-10-16T23:06:26;100881.38;;;15.94;100.00
25560;BME280;13450;49.374;8.584;2022-10-16T23:08:57;100883.88;;;15.96;100.00
25560;BME280;13450;49.374;8.584;2022-10-16T23:11:26;100882.63;;;15.99;100.00
25560;BME280;13450;49.374;8.584;2022-10-16T23:13:52;100887.63;;;16.02;100.00
25560;BME280;13450;49.374;8.584;2022-10-16T23:16:22;100896.13;;;16.05;100.00
25560;BME280;13450;49.374;8.584;2022-10-16T23:40:47;100909.00;;;16.03;100.00
25560;BME280;13450;49.374;8.584;2022-10-16T23:45:48;100920.41;;;15.99;100.00
25560;BME280;13450;49.374;8.584;2022-10-16T23:48:13;100925.41;;;15.95;100.00
25560;BME280;13450;49.374;8.584;2022-10-16T23:50:38;100925.78;;;15.92;100.00
25560;BME280;13450;49.374;8.584;2022-10-16T23:53:06;100924.97;;;15.91;100.00
25560;BME280;13450;49.374;8.584;2022-10-16T23:55:34;100918.94;;;15.89;100.00
25560;BME280;13450;49.374;8.584;2022-10-16T23:57:59;100935.34;;;15.88;100.00
